Mc Kellar Sipes Regional Airport
KMKL : now visible

Airfield :











YOU CAN JOIN US ON...

 
LOGIN :

Register | Disclaimer

   EN    FR    IT 

 









Legend :    VFR   Marginal VFR   IFR   Intensive IFR   Very Intensive IFR
Visi :
Ceiling :
>= 8 km
>= 3000ft
5 to 8 km
1000 to 3000 ft
1500m to 5 km
500 to 1000 ft
800 to 1500m
200 to 500 ft
< 800m
< 200 ft
Symbols :   Thunderstorms  Fog  Heavy snow  Heavy precipitations  Wind > 20 kt







- Airport Elevation : 434 ft
- IATA code : MKL


KMKL - Mc Kellar Sipes Regional

CURRENT METAR :
  • 211008Z AUTO 00000KT 10SM FEW006 SCT036 BKN080 24/23 A2999 RMK AO2 T02390233

EXPIRED METARs :
  • 210953Z AUTO 18005KT 10SM BKN006 24/23 A2998 RMK AO2 CIG 004V009 SLP144 T02390233
  • 210853Z AUTO 16004KT 10SM BKN006 23/23 A2998 RMK AO2 SLP147 T02330228 51003
  • 210831Z AUTO 17003KT 10SM FEW005 23/23 A2998 RMK AO2 T02330228
  • 210753Z AUTO 17003KT 10SM FEW060 23/23 A2999 RMK AO2 SLP148 T02330228

TAF KMKL
Valid from the 21 at 09:00 until the 22 at 06:00 UTC


210859Z 2109/2206 17005KT P6SM SCT006 SCT250
TEMPO 2109/2112 5SM BR BKN006
FM211500 23007KT P6SM SCT030
FM211800 22006KT P6SM SCT250
FM220000 VRB03KT P6SM BKN250
KZME FIR / North America



MET'MAP, your aeronautical weather chart ! - Copyright ORBIFLY December 2007 - Disclaimer

ORBIFLY MET'MAP TEAM :

Programming & Development : Alexandra Zaïnal
Concept & Development : Baudouin d'Aumeries
Co-Development & Prog : Marc-Olivier Méhu
Technical & hardware support : Manuel Goepfert

Contact : metmap@orbifly.com




SOURCES & CREDITS :

   NOAA       Earth
Advisory